sensor_id;sensor_type;location;lat;lon;timestamp;pressure;altitude;pressure_sealevel;temperature;humidity
65872;BME280;52653;50.080;21.992;2023-12-20T00:02:29;98647.50;;;2.48;82.10
65872;BME280;52653;50.080;21.992;2023-12-20T00:05:23;98643.55;;;2.50;81.98
65872;BME280;52653;50.080;21.992;2023-12-20T00:08:16;98642.19;;;2.52;81.83
65872;BME280;52653;50.080;21.992;2023-12-20T00:11:09;98633.41;;;2.54;81.74
65872;BME280;52653;50.080;21.992;2023-12-20T00:14:06;98627.22;;;2.57;81.85
65872;BME280;52653;50.080;21.992;2023-12-20T00:16:59;98624.32;;;2.60;81.68
65872;BME280;52653;50.080;21.992;2023-12-20T00:19:53;98617.95;;;2.63;81.42
65872;BME280;52653;50.080;21.992;2023-12-20T00:22:47;98618.73;;;2.68;81.45
65872;BME280;52653;50.080;21.992;2023-12-20T00:25:40;98622.08;;;2.73;81.21
65872;BME280;52653;50.080;21.992;2023-12-20T00:28:34;98615.53;;;2.76;81.15
65872;BME280;52653;50.080;21.992;2023-12-20T00:31:29;98614.38;;;2.79;80.98
65872;BME280;52653;50.080;21.992;2023-12-20T00:34:23;98606.13;;;2.83;80.81
65872;BME280;52653;50.080;21.992;2023-12-20T00:37:16;98600.95;;;2.85;80.68
65872;BME280;52653;50.080;21.992;2023-12-20T00:40:12;98593.02;;;2.88;80.50
65872;BME280;52653;50.080;21.992;2023-12-20T00:43:06;98593.04;;;2.90;80.35
65872;BME280;52653;50.080;21.992;2023-12-20T00:45:59;98590.47;;;2.92;80.21
65872;BME280;52653;50.080;21.992;2023-12-20T00:48:54;98593.79;;;2.94;80.34
65872;BME280;52653;50.080;21.992;2023-12-20T00:51:48;98590.17;;;2.95;80.27
65872;BME280;52653;50.080;21.992;2023-12-20T00:54:42;98586.03;;;2.98;80.07
65872;BME280;52653;50.080;21.992;2023-12-20T00:57:35;98583.95;;;2.98;79.94
65872;BME280;52653;50.080;21.992;2023-12-20T01:00:29;98580.69;;;3.00;80.07
65872;BME280;52653;50.080;21.992;2023-12-20T01:03:25;98578.79;;;3.01;79.93
65872;BME280;52653;50.080;21.992;2023-12-20T01:06:19;98577.42;;;3.04;79.64
65872;BME280;52653;50.080;21.992;2023-12-20T01:09:12;98569.16;;;3.06;79.73
65872;BME280;52653;50.080;21.992;2023-12-20T01:12:06;98568.66;;;3.08;79.58
65872;BME280;52653;50.080;21.992;2023-12-20T01:15:00;98566.77;;;3.07;79.24
65872;BME280;52653;50.080;21.992;2023-12-20T01:17:53;98561.05;;;3.07;79.37
65872;BME280;52653;50.080;21.992;2023-12-20T01:20:51;98553.23;;;3.06;79.04
65872;BME280;52653;50.080;21.992;2023-12-20T01:23:45;98545.73;;;3.03;79.10
65872;BME280;52653;50.080;21.992;2023-12-20T01:26:38;98543.97;;;3.01;79.16
65872;BME280;52653;50.080;21.992;2023-12-20T01:29:33;98537.70;;;2.96;79.14
65872;BME280;52653;50.080;21.992;2023-12-20T01:32:27;98538.66;;;2.91;79.17
65872;BME280;52653;50.080;21.992;2023-12-20T01:35:20;98539.13;;;2.86;79.35
65872;BME280;52653;50.080;21.992;2023-12-20T01:38:13;98532.48;;;2.80;79.38
65872;BME280;52653;50.080;21.992;2023-12-20T01:41:06;98530.00;;;2.77;79.58
65872;BME280;52653;50.080;21.992;2023-12-20T01:44:20;98536.19;;;2.72;79.72
65872;BME280;52653;50.080;21.992;2023-12-20T01:47:13;98529.58;;;2.69;79.90
65872;BME280;52653;50.080;21.992;2023-12-20T01:50:08;98534.03;;;2.66;79.92
65872;BME280;52653;50.080;21.992;2023-12-20T01:53:03;98533.11;;;2.63;80.04
65872;BME280;52653;50.080;21.992;2023-12-20T01:55:57;98535.70;;;2.61;80.04
65872;BME280;52653;50.080;21.992;2023-12-20T01:58:51;98536.20;;;2.59;80.19
65872;BME280;52653;50.080;21.992;2023-12-20T02:01:44;98534.45;;;2.57;80.09
65872;BME280;52653;50.080;21.992;2023-12-20T02:05:51;98523.86;;;2.55;80.03
65872;BME280;52653;50.080;21.992;2023-12-20T02:08:45;98520.17;;;2.53;80.04
65872;BME280;52653;50.080;21.992;2023-12-20T02:11:38;98512.54;;;2.51;80.09
65872;BME280;52653;50.080;21.992;2023-12-20T02:14:31;98508.73;;;2.49;80.09
65872;BME280;52653;50.080;21.992;2023-12-20T02:17:24;98508.18;;;2.47;80.05
65872;BME280;52653;50.080;21.992;2023-12-20T02:20:18;98503.83;;;2.45;79.98
65872;BME280;52653;50.080;21.992;2023-12-20T02:23:11;98499.83;;;2.43;80.10
65872;BME280;52653;50.080;21.992;2023-12-20T02:26:05;98491.09;;;2.38;80.20
65872;BME280;52653;50.080;21.992;2023-12-20T02:28:59;98489.84;;;2.35;80.36
65872;BME280;52653;50.080;21.992;2023-12-20T02:31:54;98484.80;;;2.33;80.41
65872;BME280;52653;50.080;21.992;2023-12-20T02:34:48;98483.72;;;2.29;80.46
65872;BME280;52653;50.080;21.992;2023-12-20T02:37:42;98485.23;;;2.27;80.59
65872;BME280;52653;50.080;21.992;2023-12-20T02:40:36;98481.90;;;2.24;80.58
65872;BME280;52653;50.080;21.992;2023-12-20T02:43:29;98479.10;;;2.21;80.68
65872;BME280;52653;50.080;21.992;2023-12-20T02:46:22;98479.09;;;2.19;80.71
65872;BME280;52653;50.080;21.992;2023-12-20T02:49:16;98480.80;;;2.18;80.93
65872;BME280;52653;50.080;21.992;2023-12-20T02:52:07;98477.35;;;2.18;81.08
65872;BME280;52653;50.080;21.992;2023-12-20T02:54:52;98478.05;;;2.19;80.95
65872;BME280;52653;50.080;21.992;2023-12-20T02:57:35;98471.31;;;2.20;81.00
65872;BME280;52653;50.080;21.992;2023-12-20T03:00:49;98470.98;;;2.22;80.81
65872;BME280;52653;50.080;21.992;2023-12-20T03:03:42;98464.77;;;2.22;81.11
65872;BME280;52653;50.080;21.992;2023-12-20T03:06:35;98455.42;;;2.22;80.93
65872;BME280;52653;50.080;21.992;2023-12-20T03:09:28;98451.61;;;2.22;80.93
65872;BME280;52653;50.080;21.992;2023-12-20T03:12:38;98446.41;;;2.20;80.94
65872;BME280;52653;50.080;21.992;2023-12-20T03:15:31;98446.39;;;2.20;81.05
65872;BME280;52653;50.080;21.992;2023-12-20T03:18:24;98445.52;;;2.19;81.13
65872;BME280;52653;50.080;21.992;2023-12-20T03:21:19;98446.73;;;2.19;81.18
65872;BME280;52653;50.080;21.992;2023-12-20T03:24:23;98441.02;;;2.19;81.15
65872;BME280;52653;50.080;21.992;2023-12-20T03:27:16;98442.75;;;2.18;81.19
65872;BME280;52653;50.080;21.992;2023-12-20T03:30:11;98444.65;;;2.18;81.27
65872;BME280;52653;50.080;21.992;2023-12-20T03:32:56;98443.92;;;2.16;81.14
65872;BME280;52653;50.080;21.992;2023-12-20T03:35:49;98447.34;;;2.14;81.21
65872;BME280;52653;50.080;21.992;2023-12-20T03:38:42;98448.54;;;2.13;81.26
65872;BME280;52653;50.080;21.992;2023-12-20T03:41:35;98449.73;;;2.11;81.23
65872;BME280;52653;50.080;21.992;2023-12-20T03:44:28;98449.18;;;2.09;81.38
65872;BME280;52653;50.080;21.992;2023-12-20T03:47:42;98448.81;;;2.07;81.39
65872;BME280;52653;50.080;21.992;2023-12-20T03:50:39;98445.33;;;2.04;81.39
65872;BME280;52653;50.080;21.992;2023-12-20T03:53:32;98453.40;;;2.02;81.32
65872;BME280;52653;50.080;21.992;2023-12-20T03:56:26;98449.39;;;1.99;81.43
65872;BME280;52653;50.080;21.992;2023-12-20T03:59:09;98446.07;;;1.96;81.60
65872;BME280;52653;50.080;21.992;2023-12-20T04:02:02;98448.13;;;1.94;81.33
65872;BME280;52653;50.080;21.992;2023-12-20T04:04:55;98448.95;;;1.91;81.50
65872;BME280;52653;50.080;21.992;2023-12-20T04:07:48;98452.00;;;1.89;81.39
65872;BME280;52653;50.080;21.992;2023-12-20T04:10:42;98455.93;;;1.85;81.63
65872;BME280;52653;50.080;21.992;2023-12-20T04:13:35;98455.38;;;1.81;81.71
65872;BME280;52653;50.080;21.992;2023-12-20T04:16:28;98460.13;;;1.77;81.82
65872;BME280;52653;50.080;21.992;2023-12-20T04:19:11;98455.94;;;1.73;81.93
65872;BME280;52653;50.080;21.992;2023-12-20T04:22:04;98461.25;;;1.70;81.98
65872;BME280;52653;50.080;21.992;2023-12-20T04:24:57;98464.98;;;1.66;82.05
65872;BME280;52653;50.080;21.992;2023-12-20T04:27:50;98464.58;;;1.62;82.38
65872;BME280;52653;50.080;21.992;2023-12-20T04:30:44;98462.11;;;1.59;82.16
65872;BME280;52653;50.080;21.992;2023-12-20T04:33:37;98457.41;;;1.57;82.41
65872;BME280;52653;50.080;21.992;2023-12-20T04:36:29;98453.77;;;1.55;82.44
65872;BME280;52653;50.080;21.992;2023-12-20T04:39:22;98450.30;;;1.54;82.56
65872;BME280;52653;50.080;21.992;2023-12-20T04:42:08;98451.46;;;1.52;82.46
65872;BME280;52653;50.080;21.992;2023-12-20T04:45:06;98449.70;;;1.51;82.49
65872;BME280;52653;50.080;21.992;2023-12-20T04:47:59;98451.76;;;1.50;82.75
65872;BME280;52653;50.080;21.992;2023-12-20T04:50:52;98437.41;;;1.49;82.71
65872;BME280;52653;50.080;21.992;2023-12-20T04:53:45;98432.41;;;1.50;82.61
65872;BME280;52653;50.080;21.992;2023-12-20T04:56:41;98428.79;;;1.51;82.65
65872;BME280;52653;50.080;21.992;2023-12-20T04:59:34;98427.97;;;1.52;82.62
65872;BME280;52653;50.080;21.992;2023-12-20T05:02:26;98428.30;;;1.52;82.65
65872;BME280;52653;50.080;21.992;2023-12-20T05:05:20;98423.95;;;1.51;82.61
65872;BME280;52653;50.080;21.992;2023-12-20T05:08:14;98422.73;;;1.50;82.68
65872;BME280;52653;50.080;21.992;2023-12-20T05:11:08;98429.62;;;1.48;82.62
65872;BME280;52653;50.080;21.992;2023-12-20T05:14:01;98434.09;;;1.46;82.82
65872;BME280;52653;50.080;21.992;2023-12-20T05:16:54;98432.19;;;1.45;82.87
65872;BME280;52653;50.080;21.992;2023-12-20T05:19:48;98435.29;;;1.45;82.89
65872;BME280;52653;50.080;21.992;2023-12-20T05:22:42;98439.61;;;1.45;82.98
65872;BME280;52653;50.080;21.992;2023-12-20T05:25:36;98436.52;;;1.46;82.73
65872;BME280;52653;50.080;21.992;2023-12-20T05:28:29;98434.43;;;1.46;82.85
65872;BME280;52653;50.080;21.992;2023-12-20T05:31:22;98434.29;;;1.48;82.94
65872;BME280;52653;50.080;21.992;2023-12-20T05:34:15;98423.63;;;1.51;83.18
65872;BME280;52653;50.080;21.992;2023-12-20T05:37:00;98427.33;;;1.56;83.10
65872;BME280;52653;50.080;21.992;2023-12-20T05:39:44;98428.42;;;1.60;83.02
65872;BME280;52653;50.080;21.992;2023-12-20T05:42:31;98429.73;;;1.66;83.06
65872;BME280;52653;50.080;21.992;2023-12-20T05:45:26;98431.35;;;1.70;82.88
65872;BME280;52653;50.080;21.992;2023-12-20T05:48:18;98428.81;;;1.74;82.65
65872;BME280;52653;50.080;21.992;2023-12-20T05:51:05;98420.77;;;1.79;82.57
65872;BME280;52653;50.080;21.992;2023-12-20T05:54:01;98415.27;;;1.82;82.20
65872;BME280;52653;50.080;21.992;2023-12-20T05:56:54;98422.73;;;1.85;82.27
65872;BME280;52653;50.080;21.992;2023-12-20T05:59:47;98422.08;;;1.87;81.80
65872;BME280;52653;50.080;21.992;2023-12-20T06:02:40;98423.16;;;1.90;81.57
65872;BME280;52653;50.080;21.992;2023-12-20T06:05:32;98427.73;;;1.94;81.43
65872;BME280;52653;50.080;21.992;2023-12-20T06:08:19;98427.08;;;1.99;81.19
65872;BME280;52653;50.080;21.992;2023-12-20T06:11:05;98430.27;;;2.03;81.29
65872;BME280;52653;50.080;21.992;2023-12-20T06:13:51;98426.69;;;2.08;80.97
65872;BME280;52653;50.080;21.992;2023-12-20T06:16:43;98428.83;;;2.13;80.80
65872;BME280;52653;50.080;21.992;2023-12-20T06:19:36;98428.92;;;2.19;80.74
65872;BME280;52653;50.080;21.992;2023-12-20T06:22:29;98427.25;;;2.25;80.74
65872;BME280;52653;50.080;21.992;2023-12-20T06:25:07;98428.91;;;2.31;80.58
65872;BME280;52653;50.080;21.992;2023-12-20T06:28:00;98434.33;;;2.38;80.25
65872;BME280;52653;50.080;21.992;2023-12-20T06:30:55;98435.30;;;2.46;80.27
65872;BME280;52653;50.080;21.992;2023-12-20T06:33:48;98429.31;;;2.52;80.11
65872;BME280;52653;50.080;21.992;2023-12-20T06:36:49;98428.52;;;2.59;80.02
65872;BME280;52653;50.080;21.992;2023-12-20T06:39:43;98432.38;;;2.63;79.71
65872;BME280;52653;50.080;21.992;2023-12-20T06:42:28;98436.58;;;2.67;79.42
65872;BME280;52653;50.080;21.992;2023-12-20T06:45:17;98433.35;;;2.72;79.23
65872;BME280;52653;50.080;21.992;2023-12-20T06:48:10;98429.23;;;2.77;78.88
65872;BME280;52653;50.080;21.992;2023-12-20T06:51:05;98428.61;;;2.83;78.87
65872;BME280;52653;50.080;21.992;2023-12-20T06:53:58;98427.45;;;2.90;78.31
65872;BME280;52653;50.080;21.992;2023-12-20T06:56:51;98426.52;;;2.98;78.24
65872;BME280;52653;50.080;21.992;2023-12-20T06:59:28;98432.10;;;3.03;77.97
65872;BME280;52653;50.080;21.992;2023-12-20T07:02:21;98440.48;;;3.09;77.44
65872;BME280;52653;50.080;21.992;2023-12-20T07:05:17;98443.63;;;3.13;77.13
65872;BME280;52653;50.080;21.992;2023-12-20T07:08:12;98441.44;;;3.18;76.95
65872;BME280;52653;50.080;21.992;2023-12-20T07:11:06;98442.34;;;3.23;76.89
65872;BME280;52653;50.080;21.992;2023-12-20T07:13:48;98444.64;;;3.29;76.84
65872;BME280;52653;50.080;21.992;2023-12-20T07:16:42;98445.04;;;3.33;76.57
65872;BME280;52653;50.080;21.992;2023-12-20T07:19:34;98446.45;;;3.39;76.66
65872;BME280;52653;50.080;21.992;2023-12-20T07:22:20;98450.84;;;3.43;76.33
65872;BME280;52653;50.080;21.992;2023-12-20T07:25:13;98449.83;;;3.46;76.19
65872;BME280;52653;50.080;21.992;2023-12-20T07:28:01;98447.58;;;3.48;75.97
65872;BME280;52653;50.080;21.992;2023-12-20T07:30:53;98451.23;;;3.50;75.81
65872;BME280;52653;50.080;21.992;2023-12-20T07:33:46;98460.60;;;3.52;75.83
65872;BME280;52653;50.080;21.992;2023-12-20T07:36:38;98456.63;;;3.53;75.79
65872;BME280;52653;50.080;21.992;2023-12-20T07:39:31;98458.73;;;3.55;75.60
65872;BME280;52653;50.080;21.992;2023-12-20T07:42:24;98461.18;;;3.58;75.71
65872;BME280;52653;50.080;21.992;2023-12-20T07:45:17;98456.86;;;3.59;75.71
65872;BME280;52653;50.080;21.992;2023-12-20T07:48:10;98451.33;;;3.60;75.42
65872;BME280;52653;50.080;21.992;2023-12-20T07:50:56;98449.23;;;3.61;75.59
65872;BME280;52653;50.080;21.992;2023-12-20T07:53:49;98448.04;;;3.61;75.50
65872;BME280;52653;50.080;21.992;2023-12-20T07:56:42;98443.02;;;3.64;75.54
65872;BME280;52653;50.080;21.992;2023-12-20T07:59:38;98439.91;;;3.66;75.35
65872;BME280;52653;50.080;21.992;2023-12-20T08:02:31;98436.80;;;3.68;75.61
65872;BME280;52653;50.080;21.992;2023-12-20T08:05:24;98429.90;;;3.70;75.79
65872;BME280;52653;50.080;21.992;2023-12-20T08:08:12;98432.50;;;3.70;75.88
65872;BME280;52653;50.080;21.992;2023-12-20T08:10:54;98429.36;;;3.69;75.72
65872;BME280;52653;50.080;21.992;2023-12-20T08:13:42;98422.91;;;3.67;75.84
65872;BME280;52653;50.080;21.992;2023-12-20T08:16:36;98418.23;;;3.66;75.75
65872;BME280;52653;50.080;21.992;2023-12-20T08:19:31;98424.13;;;3.65;75.86
65872;BME280;52653;50.080;21.992;2023-12-20T08:22:26;98411.81;;;3.67;76.17
65872;BME280;52653;50.080;21.992;2023-12-20T08:25:12;98404.06;;;3.71;76.44
65872;BME280;52653;50.080;21.992;2023-12-20T08:28:07;98406.70;;;3.78;76.60
65872;BME280;52653;50.080;21.992;2023-12-20T08:30:45;98405.18;;;3.83;76.83
65872;BME280;52653;50.080;21.992;2023-12-20T08:33:31;98404.33;;;3.86;76.71
65872;BME280;52653;50.080;21.992;2023-12-20T08:36:23;98408.49;;;3.88;76.67
65872;BME280;52653;50.080;21.992;2023-12-20T08:39:10;98410.75;;;3.88;76.66
65872;BME280;52653;50.080;21.992;2023-12-20T08:41:57;98410.24;;;3.91;76.60
65872;BME280;52653;50.080;21.992;2023-12-20T08:44:43;98410.80;;;3.94;76.44
65872;BME280;52653;50.080;21.992;2023-12-20T08:47:38;98411.17;;;4.00;76.49
65872;BME280;52653;50.080;21.992;2023-12-20T08:50:15;98415.52;;;4.03;75.94
65872;BME280;52653;50.080;21.992;2023-12-20T08:52:52;98414.13;;;4.03;75.74
65872;BME280;52653;50.080;21.992;2023-12-20T08:55:46;98417.42;;;4.05;75.75
65872;BME280;52653;50.080;21.992;2023-12-20T08:58:39;98417.45;;;4.06;75.21
65872;BME280;52653;50.080;21.992;2023-12-20T09:01:33;98417.46;;;4.08;75.08
65872;BME280;52653;50.080;21.992;2023-12-20T09:04:19;98415.05;;;4.09;75.02
65872;BME280;52653;50.080;21.992;2023-12-20T09:07:23;98410.71;;;4.11;75.21
65872;BME280;52653;50.080;21.992;2023-12-20T09:10:11;98411.94;;;4.16;75.21
65872;BME280;52653;50.080;21.992;2023-12-20T09:13:09;98405.19;;;4.19;75.25
65872;BME280;52653;50.080;21.992;2023-12-20T09:15:55;98397.75;;;4.21;75.06
65872;BME280;52653;50.080;21.992;2023-12-20T09:18:49;98400.87;;;4.22;74.84
65872;BME280;52653;50.080;21.992;2023-12-20T09:21:54;98397.23;;;4.22;75.08
65872;BME280;52653;50.080;21.992;2023-12-20T09:24:48;98394.63;;;4.24;74.94
65872;BME280;52653;50.080;21.992;2023-12-20T09:27:41;98394.29;;;4.24;74.84
65872;BME280;52653;50.080;21.992;2023-12-20T09:30:34;98395.84;;;4.22;74.75
65872;BME280;52653;50.080;21.992;2023-12-20T09:33:23;98393.77;;;4.22;74.80
65872;BME280;52653;50.080;21.992;2023-12-20T09:36:08;98387.52;;;4.22;74.69
65872;BME280;52653;50.080;21.992;2023-12-20T09:39:01;98384.39;;;4.23;74.68
65872;BME280;52653;50.080;21.992;2023-12-20T09:42:03;98383.52;;;4.26;74.95
65872;BME280;52653;50.080;21.992;2023-12-20T09:45:00;98382.31;;;4.28;74.88
65872;BME280;52653;50.080;21.992;2023-12-20T09:47:53;98382.49;;;4.29;74.99
65872;BME280;52653;50.080;21.992;2023-12-20T09:50:48;98381.10;;;4.29;74.87
65872;BME280;52653;50.080;21.992;2023-12-20T09:53:44;98375.36;;;4.30;75.17
65872;BME280;52653;50.080;21.992;2023-12-20T09:56:38;98371.56;;;4.32;75.09
65872;BME280;52653;50.080;21.992;2023-12-20T09:59:33;98371.41;;;4.35;75.22
65872;BME280;52653;50.080;21.992;2023-12-20T10:02:26;98370.03;;;4.37;75.24
65872;BME280;52653;50.080;21.992;2023-12-20T10:05:17;98371.77;;;4.39;75.45
65872;BME280;52653;50.080;21.992;2023-12-20T10:08:11;98373.33;;;4.41;75.39
65872;BME280;52653;50.080;21.992;2023-12-20T10:11:04;98373.85;;;4.41;75.39
65872;BME280;52653;50.080;21.992;2023-12-20T10:14:01;98374.55;;;4.43;75.45
65872;BME280;52653;50.080;21.992;2023-12-20T10:17:03;98374.40;;;4.46;75.35
65872;BME280;52653;50.080;21.992;2023-12-20T10:19:56;98376.31;;;4.46;75.21
65872;BME280;52653;50.080;21.992;2023-12-20T10:22:53;98377.52;;;4.44;75.14
65872;BME280;52653;50.080;21.992;2023-12-20T10:25:39;98374.38;;;4.42;75.46
65872;BME280;52653;50.080;21.992;2023-12-20T10:28:35;98368.64;;;4.42;75.68
65872;BME280;52653;50.080;21.992;2023-12-20T10:31:30;98363.98;;;4.45;76.23
65872;BME280;52653;50.080;21.992;2023-12-20T10:34:22;98363.13;;;4.48;76.75
65872;BME280;52653;50.080;21.992;2023-12-20T10:37:15;98362.27;;;4.49;76.87
65872;BME280;52653;50.080;21.992;2023-12-20T10:40:10;98361.21;;;4.46;77.03
65872;BME280;52653;50.080;21.992;2023-12-20T10:43:02;98367.26;;;4.42;77.29
65872;BME280;52653;50.080;21.992;2023-12-20T10:46:00;98362.22;;;4.38;77.76
65872;BME280;52653;50.080;21.992;2023-12-20T10:48:54;98357.89;;;4.37;78.09
65872;BME280;52653;50.080;21.992;2023-12-20T10:51:38;98353.55;;;4.42;78.10
65872;BME280;52653;50.080;21.992;2023-12-20T10:54:24;98355.65;;;4.49;78.43
65872;BME280;52653;50.080;21.992;2023-12-20T10:57:21;98351.84;;;4.53;78.44
65872;BME280;52653;50.080;21.992;2023-12-20T11:00:17;98347.50;;;4.54;78.58
65872;BME280;52653;50.080;21.992;2023-12-20T11:03:11;98349.06;;;4.52;78.68
65872;BME280;52653;50.080;21.992;2023-12-20T11:06:08;98349.23;;;4.51;79.11
65872;BME280;52653;50.080;21.992;2023-12-20T11:09:14;98347.84;;;4.50;79.37
65872;BME280;52653;50.080;21.992;2023-12-20T11:12:13;98341.94;;;4.49;79.87
65872;BME280;52653;50.080;21.992;2023-12-20T11:14:52;98343.33;;;4.48;80.21
65872;BME280;52653;50.080;21.992;2023-12-20T11:17:47;98336.91;;;4.46;80.60
65872;BME280;52653;50.080;21.992;2023-12-20T11:20:47;98330.98;;;4.45;80.79
65872;BME280;52653;50.080;21.992;2023-12-20T11:23:43;98327.35;;;4.45;81.25
65872;BME280;52653;50.080;21.992;2023-12-20T11:26:37;98320.92;;;4.47;81.55
65872;BME280;52653;50.080;21.992;2023-12-20T11:29:33;98321.45;;;4.46;82.01
65872;BME280;52653;50.080;21.992;2023-12-20T11:32:35;98320.21;;;4.41;82.14
65872;BME280;52653;50.080;21.992;2023-12-20T11:35:33;98319.00;;;4.37;82.50
65872;BME280;52653;50.080;21.992;2023-12-20T11:38:16;98316.55;;;4.33;82.90
65872;BME280;52653;50.080;21.992;2023-12-20T11:41:12;98319.83;;;4.29;83.28
65872;BME280;52653;50.080;21.992;2023-12-20T11:44:07;98312.88;;;4.21;83.93
65872;BME280;52653;50.080;21.992;2023-12-20T11:47:02;98307.98;;;4.15;84.47
65872;BME280;52653;50.080;21.992;2023-12-20T11:49:48;98305.88;;;4.06;85.20
65872;BME280;52653;50.080;21.992;2023-12-20T11:52:42;98299.78;;;3.98;85.38
65872;BME280;52653;50.080;21.992;2023-12-20T11:55:35;98298.38;;;3.93;85.76
65872;BME280;52653;50.080;21.992;2023-12-20T11:58:28;98304.41;;;3.84;86.31
65872;BME280;52653;50.080;21.992;2023-12-20T12:01:22;98300.38;;;3.75;86.66
65872;BME280;52653;50.080;21.992;2023-12-20T12:04:16;98299.81;;;3.67;87.18
65872;BME280;52653;50.080;21.992;2023-12-20T12:06:59;98301.00;;;3.61;87.34
65872;BME280;52653;50.080;21.992;2023-12-20T12:09:52;98300.61;;;3.54;87.88
65872;BME280;52653;50.080;21.992;2023-12-20T12:12:45;98302.84;;;3.47;88.23
65872;BME280;52653;50.080;21.992;2023-12-20T12:15:38;98304.55;;;3.43;88.50
65872;BME280;52653;50.080;21.992;2023-12-20T12:18:34;98305.55;;;3.39;89.04
65872;BME280;52653;50.080;21.992;2023-12-20T12:21:21;98297.91;;;3.36;89.13
65872;BME280;52653;50.080;21.992;2023-12-20T12:24:23;98298.09;;;3.36;89.38
65872;BME280;52653;50.080;21.992;2023-12-20T12:27:16;98297.38;;;3.34;89.90
65872;BME280;52653;50.080;21.992;2023-12-20T12:30:04;98295.47;;;3.32;90.05
65872;BME280;52653;50.080;21.992;2023-12-20T12:32:59;98291.29;;;3.31;90.38
65872;BME280;52653;50.080;21.992;2023-12-20T12:35:52;98290.94;;;3.30;90.76
65872;BME280;52653;50.080;21.992;2023-12-20T12:38:48;98292.66;;;3.30;90.99
65872;BME280;52653;50.080;21.992;2023-12-20T12:41:41;98293.70;;;3.30;90.99
65872;BME280;52653;50.080;21.992;2023-12-20T12:44:32;98291.42;;;3.27;91.34
65872;BME280;52653;50.080;21.992;2023-12-20T12:47:26;98293.33;;;3.25;91.24
65872;BME280;52653;50.080;21.992;2023-12-20T12:50:10;98294.70;;;3.23;91.49
65872;BME280;52653;50.080;21.992;2023-12-20T12:53:03;98290.89;;;3.22;91.56
65872;BME280;52653;50.080;21.992;2023-12-20T12:55:56;98284.48;;;3.21;91.74
65872;BME280;52653;50.080;21.992;2023-12-20T12:58:48;98279.97;;;3.19;91.95
65872;BME280;52653;50.080;21.992;2023-12-20T13:01:43;98280.79;;;3.17;92.41
65872;BME280;52653;50.080;21.992;2023-12-20T13:04:25;98280.80;;;3.17;92.55
65872;BME280;52653;50.080;21.992;2023-12-20T13:07:05;98285.48;;;3.17;92.66
65872;BME280;52653;50.080;21.992;2023-12-20T13:09:58;98289.46;;;3.16;92.99
65872;BME280;52653;50.080;21.992;2023-12-20T13:12:52;98291.53;;;3.16;93.22
65872;BME280;52653;50.080;21.992;2023-12-20T13:15:43;98294.30;;;3.17;93.18
65872;BME280;52653;50.080;21.992;2023-12-20T13:18:34;98296.04;;;3.15;93.57
65872;BME280;52653;50.080;21.992;2023-12-20T13:21:26;98296.90;;;3.15;93.50
65872;BME280;52653;50.080;21.992;2023-12-20T13:24:10;98295.16;;;3.15;93.52
65872;BME280;52653;50.080;21.992;2023-12-20T13:26:56;98290.31;;;3.14;93.78
65872;BME280;52653;50.080;21.992;2023-12-20T13:29:49;98291.86;;;3.13;93.76
65872;BME280;52653;50.080;21.992;2023-12-20T13:32:42;98290.30;;;3.12;93.82
65872;BME280;52653;50.080;21.992;2023-12-20T13:35:36;98284.94;;;3.13;94.27
65872;BME280;52653;50.080;21.992;2023-12-20T13:38:09;98283.71;;;3.11;94.31
65872;BME280;52653;50.080;21.992;2023-12-20T13:40:55;98282.84;;;3.10;94.26
65872;BME280;52653;50.080;21.992;2023-12-20T13:43:42;98285.27;;;3.11;94.26
65872;BME280;52653;50.080;21.992;2023-12-20T13:46:37;98288.22;;;3.12;94.27
65872;BME280;52653;50.080;21.992;2023-12-20T13:49:33;98285.27;;;3.12;94.44
65872;BME280;52653;50.080;21.992;2023-12-20T13:52:20;98286.84;;;3.11;94.50
65872;BME280;52653;50.080;21.992;2023-12-20T13:55:12;98288.73;;;3.10;94.57
65872;BME280;52653;50.080;21.992;2023-12-20T13:58:04;98287.86;;;3.08;94.57
65872;BME280;52653;50.080;21.992;2023-12-20T14:00:57;98295.12;;;3.07;94.72
65872;BME280;52653;50.080;21.992;2023-12-20T14:03:53;98294.25;;;3.06;94.91
65872;BME280;52653;50.080;21.992;2023-12-20T14:06:38;98294.73;;;3.03;95.32
65872;BME280;52653;50.080;21.992;2023-12-20T14:09:31;98299.59;;;3.03;95.55
65872;BME280;52653;50.080;21.992;2023-12-20T14:12:08;98293.52;;;3.02;95.48
65872;BME280;52653;50.080;21.992;2023-12-20T14:15:02;98299.92;;;3.02;95.74
65872;BME280;52653;50.080;21.992;2023-12-20T14:17:55;98296.45;;;3.03;96.08
65872;BME280;52653;50.080;21.992;2023-12-20T14:20:41;98300.45;;;3.02;96.26
65872;BME280;52653;50.080;21.992;2023-12-20T14:23:21;98302.00;;;3.02;96.54
65872;BME280;52653;50.080;21.992;2023-12-20T14:26:06;98302.35;;;3.02;96.57
65872;BME280;52653;50.080;21.992;2023-12-20T14:28:59;98305.80;;;3.02;96.69
65872;BME280;52653;50.080;21.992;2023-12-20T14:31:31;98313.09;;;3.03;96.78
65872;BME280;52653;50.080;21.992;2023-12-20T14:34:23;98313.79;;;3.04;96.98
65872;BME280;52653;50.080;21.992;2023-12-20T14:37:08;98309.63;;;3.03;97.16
65872;BME280;52653;50.080;21.992;2023-12-20T14:39:42;98308.92;;;3.02;97.42
65872;BME280;52653;50.080;21.992;2023-12-20T14:42:22;98304.09;;;3.03;97.71
65872;BME280;52653;50.080;21.992;2023-12-20T14:45:01;98304.44;;;3.04;97.92
65872;BME280;52653;50.080;21.992;2023-12-20T14:47:39;98300.66;;;3.05;97.99
65872;BME280;52653;50.080;21.992;2023-12-20T14:50:25;98305.52;;;3.07;98.25
65872;BME280;52653;50.080;21.992;2023-12-20T14:53:20;98302.58;;;3.08;98.60
65872;BME280;52653;50.080;21.992;2023-12-20T14:56:04;98303.11;;;3.09;98.66
65872;BME280;52653;50.080;21.992;2023-12-20T14:58:47;98302.08;;;3.11;98.94
65872;BME280;52653;50.080;21.992;2023-12-20T15:01:39;98297.23;;;3.13;98.96
65872;BME280;52653;50.080;21.992;2023-12-20T15:04:33;98300.71;;;3.15;99.15
65872;BME280;52653;50.080;21.992;2023-12-20T15:07:25;98298.30;;;3.16;99.36
65872;BME280;52653;50.080;21.992;2023-12-20T15:10:01;98296.95;;;3.18;99.53
65872;BME280;52653;50.080;21.992;2023-12-20T15:12:48;98292.28;;;3.20;99.80